Northeastern Regional Airport


Codes: KEDE/EDE
Name: Northeastern Regional Airport
City: Edenton
Country: United States
Elevation: 20 ft.
Wikipedia:

Photos at Northeastern Regional Airport


   Photos courtesy of SpottingLog. You can add your own sightings and photos by signing up for a free trial today.



No photos found.

Weather at Northeastern Regional Airport


Time (UTC)DescriptionTempratureWindCloud coverageVisibilityPressureHumidity
16-Jun-2024 12:00Few Clouds20°C7 mph, NE16%10000m1021hPa86%
16-Jun-2024 15:00Broken Clouds23°C11 mph, E66%10000m1022hPa66%
16-Jun-2024 18:00Broken Clouds26°C13 mph, E82%10000m1022hPa48%
16-Jun-2024 21:00Overcast Clouds26°C13 mph, E87%10000m1022hPa47%
17-Jun-2024 00:00Overcast Clouds23°C11 mph, E88%10000m1022hPa58%
17-Jun-2024 03:00Broken Clouds21°C9 mph, SE78%10000m1022hPa67%
17-Jun-2024 06:00Broken Clouds20°C7 mph, SE58%10000m1023hPa75%
17-Jun-2024 09:00Broken Clouds20°C7 mph, SE83%10000m1023hPa79%
17-Jun-2024 12:00Broken Clouds23°C4 mph, SE55%10000m1024hPa66%
17-Jun-2024 15:00Broken Clouds26°C7 mph, E58%10000m1024hPa52%
17-Jun-2024 18:00Scattered Clouds27°C11 mph, NE32%10000m1023hPa52%
17-Jun-2024 21:00Scattered Clouds28°C13 mph, E32%10000m1022hPa52%
18-Jun-2024 00:00Few Clouds24°C13 mph, SE19%10000m1022hPa61%
18-Jun-2024 03:00Clear Sky21°C9 mph, SE8%10000m1023hPa75%
18-Jun-2024 06:00Clear Sky21°C7 mph, SE8%10000m1024hPa79%
18-Jun-2024 09:00Clear Sky20°C7 mph, SE9%10000m1024hPa82%
18-Jun-2024 12:00Clear Sky23°C4 mph, SE6%10000m1025hPa71%
18-Jun-2024 15:00Clear Sky26°C7 mph, E3%10000m1025hPa55%
18-Jun-2024 18:00Clear Sky27°C13 mph, NE1%10000m1024hPa55%
18-Jun-2024 21:00Clear Sky27°C16 mph, E0%10000m1024hPa57%
19-Jun-2024 00:00Clear Sky25°C11 mph, E0%10000m1024hPa62%
19-Jun-2024 03:00Clear Sky23°C11 mph, SE1%10000m1025hPa74%
19-Jun-2024 06:00Clear Sky22°C9 mph, SE2%10000m1025hPa79%
19-Jun-2024 09:00Clear Sky22°C7 mph, E7%10000m1025hPa83%
19-Jun-2024 12:00Clear Sky24°C9 mph, E7%10000m1027hPa68%
19-Jun-2024 15:00Scattered Clouds27°C13 mph, E41%10000m1027hPa56%
19-Jun-2024 18:00Few Clouds27°C16 mph, E22%10000m1027hPa56%
19-Jun-2024 21:00Clear Sky26°C18 mph, E0%10000m1025hPa62%
20-Jun-2024 00:00Clear Sky25°C13 mph, E1%10000m1026hPa69%
20-Jun-2024 03:00Scattered Clouds23°C9 mph, E41%10000m1026hPa73%
20-Jun-2024 06:00Broken Clouds23°C9 mph, E71%10000m1026hPa72%
20-Jun-2024 09:00Broken Clouds23°C9 mph, E73%10000m1026hPa74%
20-Jun-2024 12:00Broken Clouds25°C7 mph, E72%10000m1027hPa65%
20-Jun-2024 15:00Few Clouds27°C11 mph, E15%10000m1027hPa55%
20-Jun-2024 18:00Few Clouds28°C16 mph, E12%10000m1026hPa56%
20-Jun-2024 21:00Clear Sky28°C13 mph, E1%10000m1025hPa56%
21-Jun-2024 00:00Clear Sky26°C11 mph, SE1%10000m1026hPa65%
21-Jun-2024 03:00Clear Sky23°C9 mph, SE0%10000m1026hPa80%
21-Jun-2024 06:00Clear Sky22°C7 mph, S0%10000m1025hPa86%
21-Jun-2024 09:00Clear Sky21°C4 mph, S4%10000m1025hPa87%